sensor_id;sensor_type;location;lat;lon;timestamp;pressure;altitude;pressure_sealevel;temperature;humidity
72465;BME280;60471;52.150;4.508;2022-11-15T00:00:55;100536.78;;;8.04;86.00
72465;BME280;60471;52.150;4.508;2022-11-15T00:03:24;100539.41;;;8.04;85.75
72465;BME280;60471;52.150;4.508;2022-11-15T00:05:52;100536.97;;;8.00;86.18
72465;BME280;60471;52.150;4.508;2022-11-15T00:08:19;100534.63;;;7.94;86.62
72465;BME280;60471;52.150;4.508;2022-11-15T00:10:59;100533.94;;;7.89;86.56
72465;BME280;60471;52.150;4.508;2022-11-15T00:13:26;100538.34;;;7.88;86.66
72465;BME280;60471;52.150;4.508;2022-11-15T00:15:57;100531.25;;;7.90;86.62
72465;BME280;60471;52.150;4.508;2022-11-15T00:18:24;100538.72;;;7.79;87.30
72465;BME280;60471;52.150;4.508;2022-11-15T00:20:51;100530.47;;;7.88;87.31
72465;BME280;60471;52.150;4.508;2022-11-15T00:23:17;100532.50;;;8.02;86.95
72465;BME280;60471;52.150;4.508;2022-11-15T00:25:43;100524.56;;;8.03;86.66
72465;BME280;60471;52.150;4.508;2022-11-15T00:28:11;100518.09;;;7.90;87.35
72465;BME280;60471;52.150;4.508;2022-11-15T00:30:37;100522.50;;;7.90;87.36
72465;BME280;60471;52.150;4.508;2022-11-15T00:33:05;100523.25;;;7.93;87.28
72465;BME280;60471;52.150;4.508;2022-11-15T00:35:33;100514.84;;;7.85;87.71
72465;BME280;60471;52.150;4.508;2022-11-15T00:38:01;100513.44;;;7.76;88.03
72465;BME280;60471;52.150;4.508;2022-11-15T00:40:28;100512.44;;;7.79;88.40
72465;BME280;60471;52.150;4.508;2022-11-15T00:42:55;100515.13;;;7.77;88.50
72465;BME280;60471;52.150;4.508;2022-11-15T00:45:22;100511.59;;;7.78;88.74
72465;BME280;60471;52.150;4.508;2022-11-15T00:47:48;100502.28;;;7.92;88.34
72465;BME280;60471;52.150;4.508;2022-11-15T00:50:15;100500.78;;;7.86;88.71
72465;BME280;60471;52.150;4.508;2022-11-15T00:52:42;100491.44;;;7.99;88.61
72465;BME280;60471;52.150;4.508;2022-11-15T00:55:16;100496.78;;;7.98;88.56
72465;BME280;60471;52.150;4.508;2022-11-15T00:57:43;100502.56;;;8.06;88.19
72465;BME280;60471;52.150;4.508;2022-11-15T01:00:10;100502.88;;;7.98;88.92
72465;BME280;60471;52.150;4.508;2022-11-15T01:02:37;100509.28;;;7.93;89.16
72465;BME280;60471;52.150;4.508;2022-11-15T01:05:03;100507.34;;;7.96;89.10
72465;BME280;60471;52.150;4.508;2022-11-15T01:07:30;100505.97;;;8.08;88.78
72465;BME280;60471;52.150;4.508;2022-11-15T01:09:56;100497.03;;;8.12;88.59
72465;BME280;60471;52.150;4.508;2022-11-15T01:12:22;100498.41;;;8.00;89.27
72465;BME280;60471;52.150;4.508;2022-11-15T01:14:49;100488.56;;;8.05;89.35
72465;BME280;60471;52.150;4.508;2022-11-15T01:17:15;100487.13;;;7.98;89.27
72465;BME280;60471;52.150;4.508;2022-11-15T01:19:41;100476.94;;;8.11;89.28
72465;BME280;60471;52.150;4.508;2022-11-15T01:22:07;100482.53;;;8.03;89.45
72465;BME280;60471;52.150;4.508;2022-11-15T01:24:34;100478.91;;;8.06;89.76
72465;BME280;60471;52.150;4.508;2022-11-15T01:27:00;100471.97;;;8.05;90.04
72465;BME280;60471;52.150;4.508;2022-11-15T01:29:26;100463.59;;;8.16;89.67
72465;BME280;60471;52.150;4.508;2022-11-15T01:31:53;100466.94;;;8.19;89.65
72465;BME280;60471;52.150;4.508;2022-11-15T01:34:19;100466.22;;;8.16;89.92
72465;BME280;60471;52.150;4.508;2022-11-15T01:36:46;100459.00;;;8.21;89.78
72465;BME280;60471;52.150;4.508;2022-11-15T01:39:12;100457.59;;;8.32;89.72
72465;BME280;60471;52.150;4.508;2022-11-15T01:41:38;100461.47;;;8.24;89.78
72465;BME280;60471;52.150;4.508;2022-11-15T01:47:24;100461.84;;;8.36;89.64
72465;BME280;60471;52.150;4.508;2022-11-15T01:50:15;100468.19;;;8.31;90.03
72465;BME280;60471;52.150;4.508;2022-11-15T01:52:45;100455.25;;;8.26;90.31
72465;BME280;60471;52.150;4.508;2022-11-15T01:55:20;100451.88;;;8.43;90.05
72465;BME280;60471;52.150;4.508;2022-11-15T01:57:53;100455.09;;;8.50;89.87
72465;BME280;60471;52.150;4.508;2022-11-15T02:00:22;100446.00;;;8.38;90.35
72465;BME280;60471;52.150;4.508;2022-11-15T02:02:49;100443.00;;;8.46;89.99
72465;BME280;60471;52.150;4.508;2022-11-15T02:05:16;100442.72;;;8.52;90.26
72465;BME280;60471;52.150;4.508;2022-11-15T02:07:42;100431.94;;;8.58;89.86
72465;BME280;60471;52.150;4.508;2022-11-15T02:10:10;100430.00;;;8.61;89.92
72465;BME280;60471;52.150;4.508;2022-11-15T02:12:39;100420.28;;;8.63;89.99
72465;BME280;60471;52.150;4.508;2022-11-15T02:15:07;100418.84;;;8.56;90.51
72465;BME280;60471;52.150;4.508;2022-11-15T02:17:44;100416.16;;;8.58;90.74
72465;BME280;60471;52.150;4.508;2022-11-15T02:26:29;100405.59;;;8.77;90.32
72465;BME280;60471;52.150;4.508;2022-11-15T02:29:32;100388.78;;;8.81;90.52
72465;BME280;60471;52.150;4.508;2022-11-15T02:35:22;100398.72;;;8.74;91.33
72465;BME280;60471;52.150;4.508;2022-11-15T02:37:59;100396.66;;;8.81;90.74
72465;BME280;60471;52.150;4.508;2022-11-15T02:40:47;100395.81;;;8.80;91.08
72465;BME280;60471;52.150;4.508;2022-11-15T02:43:26;100394.88;;;8.81;91.54
72465;BME280;60471;52.150;4.508;2022-11-15T02:46:59;100381.50;;;8.86;91.28
72465;BME280;60471;52.150;4.508;2022-11-15T02:49:59;100383.84;;;8.92;91.33
72465;BME280;60471;52.150;4.508;2022-11-15T02:52:30;100382.00;;;8.94;91.22
72465;BME280;60471;52.150;4.508;2022-11-15T02:54:58;100387.41;;;8.91;91.48
72465;BME280;60471;52.150;4.508;2022-11-15T03:01:28;100381.38;;;9.06;91.25
72465;BME280;60471;52.150;4.508;2022-11-15T03:12:43;100378.22;;;9.17;91.39
72465;BME280;60471;52.150;4.508;2022-11-15T03:15:24;100369.41;;;9.18;91.48
72465;BME280;60471;52.150;4.508;2022-11-15T03:18:32;100368.25;;;9.23;91.37
72465;BME280;60471;52.150;4.508;2022-11-15T03:21:05;100374.28;;;9.25;91.59
72465;BME280;60471;52.150;4.508;2022-11-15T03:23:36;100367.34;;;9.24;91.43
72465;BME280;60471;52.150;4.508;2022-11-15T03:26:07;100364.53;;;9.27;91.39
72465;BME280;60471;52.150;4.508;2022-11-15T03:31:07;100374.28;;;9.25;91.83
72465;BME280;60471;52.150;4.508;2022-11-15T03:33:57;100369.88;;;9.26;91.86
72465;BME280;60471;52.150;4.508;2022-11-15T03:36:31;100370.72;;;9.26;91.91
72465;BME280;60471;52.150;4.508;2022-11-15T03:39:02;100368.41;;;9.38;91.62
72465;BME280;60471;52.150;4.508;2022-11-15T03:42:04;100369.25;;;9.38;91.71
72465;BME280;60471;52.150;4.508;2022-11-15T03:44:58;100363.38;;;9.50;91.63
72465;BME280;60471;52.150;4.508;2022-11-15T03:47:45;100353.13;;;9.62;91.29
72465;BME280;60471;52.150;4.508;2022-11-15T03:50:19;100364.22;;;9.68;90.95
72465;BME280;60471;52.150;4.508;2022-11-15T03:52:49;100348.78;;;9.78;90.68
72465;BME280;60471;52.150;4.508;2022-11-15T03:55:19;100360.84;;;9.82;90.43
72465;BME280;60471;52.150;4.508;2022-11-15T03:57:49;100357.69;;;9.75;90.89
72465;BME280;60471;52.150;4.508;2022-11-15T04:00:17;100365.19;;;9.83;90.45
72465;BME280;60471;52.150;4.508;2022-11-15T04:02:43;100365.97;;;9.85;90.74
72465;BME280;60471;52.150;4.508;2022-11-15T04:05:09;100359.75;;;9.86;90.78
72465;BME280;60471;52.150;4.508;2022-11-15T04:07:36;100360.47;;;9.90;90.80
72465;BME280;60471;52.150;4.508;2022-11-15T04:10:04;100355.69;;;9.96;91.06
72465;BME280;60471;52.150;4.508;2022-11-15T04:12:32;100352.97;;;9.98;91.02
72465;BME280;60471;52.150;4.508;2022-11-15T04:15:05;100359.91;;;10.00;91.29
72465;BME280;60471;52.150;4.508;2022-11-15T04:17:54;100357.00;;;10.05;91.45
72465;BME280;60471;52.150;4.508;2022-11-15T04:20:23;100353.72;;;10.17;91.27
72465;BME280;60471;52.150;4.508;2022-11-15T04:23:15;100350.69;;;10.25;91.21
72465;BME280;60471;52.150;4.508;2022-11-15T04:26:03;100349.84;;;10.24;91.77
72465;BME280;60471;52.150;4.508;2022-11-15T04:28:50;100350.28;;;10.32;91.69
72465;BME280;60471;52.150;4.508;2022-11-15T04:31:35;100342.28;;;10.34;91.88
72465;BME280;60471;52.150;4.508;2022-11-15T04:34:01;100345.69;;;10.36;91.69
72465;BME280;60471;52.150;4.508;2022-11-15T04:36:28;100343.03;;;10.52;91.45
72465;BME280;60471;52.150;4.508;2022-11-15T04:39:12;100341.25;;;10.52;91.94
72465;BME280;60471;52.150;4.508;2022-11-15T04:41:39;100344.41;;;10.59;92.00
72465;BME280;60471;52.150;4.508;2022-11-15T04:44:05;100346.19;;;10.74;91.41
72465;BME280;60471;52.150;4.508;2022-11-15T04:46:32;100341.00;;;10.72;91.18
72465;BME280;60471;52.150;4.508;2022-11-15T04:48:58;100330.88;;;10.81;90.99
72465;BME280;60471;52.150;4.508;2022-11-15T04:51:25;100328.72;;;10.87;90.97
72465;BME280;60471;52.150;4.508;2022-11-15T04:53:51;100336.56;;;10.89;90.42
72465;BME280;60471;52.150;4.508;2022-11-15T04:56:18;100350.00;;;11.00;90.37
72465;BME280;60471;52.150;4.508;2022-11-15T04:58:45;100349.72;;;11.04;89.81
72465;BME280;60471;52.150;4.508;2022-11-15T05:01:13;100354.44;;;10.99;90.67
72465;BME280;60471;52.150;4.508;2022-11-15T05:03:41;100350.66;;;11.03;90.36
72465;BME280;60471;52.150;4.508;2022-11-15T05:06:26;100350.03;;;11.14;89.98
72465;BME280;60471;52.150;4.508;2022-11-15T05:08:53;100353.19;;;11.21;90.02
72465;BME280;60471;52.150;4.508;2022-11-15T05:11:20;100361.34;;;11.16;89.73
72465;BME280;60471;52.150;4.508;2022-11-15T05:13:47;100365.53;;;11.20;89.79
72465;BME280;60471;52.150;4.508;2022-11-15T05:16:13;100366.72;;;11.30;89.20
72465;BME280;60471;52.150;4.508;2022-11-15T05:18:40;100360.63;;;11.28;89.27
72465;BME280;60471;52.150;4.508;2022-11-15T05:21:08;100364.81;;;11.32;89.40
72465;BME280;60471;52.150;4.508;2022-11-15T05:23:36;100356.25;;;11.29;89.32
72465;BME280;60471;52.150;4.508;2022-11-15T05:26:04;100366.63;;;11.32;89.14
72465;BME280;60471;52.150;4.508;2022-11-15T05:28:32;100373.69;;;11.31;89.14
72465;BME280;60471;52.150;4.508;2022-11-15T05:31:10;100366.63;;;11.32;89.14
72465;BME280;60471;52.150;4.508;2022-11-15T05:33:39;100373.41;;;11.36;89.13
72465;BME280;60471;52.150;4.508;2022-11-15T05:36:12;100364.72;;;11.34;89.30
72465;BME280;60471;52.150;4.508;2022-11-15T05:38:44;100379.13;;;11.28;89.07
72465;BME280;60471;52.150;4.508;2022-11-15T05:41:12;100369.38;;;11.45;88.38
72465;BME280;60471;52.150;4.508;2022-11-15T05:43:40;100378.78;;;11.35;88.44
72465;BME280;60471;52.150;4.508;2022-11-15T05:46:09;100383.88;;;11.38;88.09
72465;BME280;60471;52.150;4.508;2022-11-15T05:48:37;100382.19;;;11.37;88.51
72465;BME280;60471;52.150;4.508;2022-11-15T05:51:06;100378.44;;;11.41;87.92
72465;BME280;60471;52.150;4.508;2022-11-15T05:53:34;100380.22;;;11.40;87.86
72465;BME280;60471;52.150;4.508;2022-11-15T05:56:03;100377.31;;;11.45;87.29
72465;BME280;60471;52.150;4.508;2022-11-15T05:58:32;100380.22;;;11.40;87.59
72465;BME280;60471;52.150;4.508;2022-11-15T06:00:59;100375.19;;;11.36;87.62
72465;BME280;60471;52.150;4.508;2022-11-15T06:03:26;100362.22;;;11.47;87.18
72465;BME280;60471;52.150;4.508;2022-11-15T06:05:52;100381.19;;;11.23;87.94
72465;BME280;60471;52.150;4.508;2022-11-15T06:08:18;100388.09;;;11.26;87.73
72465;BME280;60471;52.150;4.508;2022-11-15T06:10:44;100384.34;;;11.30;87.28
72465;BME280;60471;52.150;4.508;2022-11-15T06:13:11;100393.13;;;11.15;87.73
72465;BME280;60471;52.150;4.508;2022-11-15T06:15:37;100385.69;;;11.07;87.88
72465;BME280;60471;52.150;4.508;2022-11-15T06:18:03;100386.69;;;11.04;88.10
72465;BME280;60471;52.150;4.508;2022-11-15T06:20:30;100390.88;;;11.09;87.83
72465;BME280;60471;52.150;4.508;2022-11-15T06:23:03;100385.16;;;11.00;87.80
72465;BME280;60471;52.150;4.508;2022-11-15T06:25:31;100387.28;;;10.94;87.88
72465;BME280;60471;52.150;4.508;2022-11-15T06:27:58;100386.97;;;11.00;87.55
72465;BME280;60471;52.150;4.508;2022-11-15T06:30:26;100400.34;;;10.97;87.17
72465;BME280;60471;52.150;4.508;2022-11-15T06:33:01;100387.28;;;10.94;87.01
72465;BME280;60471;52.150;4.508;2022-11-15T06:35:32;100386.28;;;10.81;87.16
72465;BME280;60471;52.150;4.508;2022-11-15T06:38:04;100390.88;;;10.93;86.39
72465;BME280;60471;52.150;4.508;2022-11-15T06:40:36;100386.09;;;10.84;86.63
72465;BME280;60471;52.150;4.508;2022-11-15T06:43:05;100387.56;;;10.89;86.07
72465;BME280;60471;52.150;4.508;2022-11-15T06:45:32;100399.47;;;10.81;86.24
72465;BME280;60471;52.150;4.508;2022-11-15T06:47:58;100408.66;;;10.73;86.46
72465;BME280;60471;52.150;4.508;2022-11-15T06:50:25;100408.09;;;10.68;86.27
72465;BME280;60471;52.150;4.508;2022-11-15T06:52:51;100410.97;;;10.80;85.26
72465;BME280;60471;52.150;4.508;2022-11-15T06:55:17;100419.56;;;10.67;86.03
72465;BME280;60471;52.150;4.508;2022-11-15T06:57:51;100415.06;;;10.69;85.75
72465;BME280;60471;52.150;4.508;2022-11-15T07:00:19;100411.66;;;10.67;85.86
72465;BME280;60471;52.150;4.508;2022-11-15T07:02:47;100405.44;;;10.68;85.42
72465;BME280;60471;52.150;4.508;2022-11-15T07:05:14;100408.59;;;10.59;85.60
72465;BME280;60471;52.150;4.508;2022-11-15T07:07:41;100408.50;;;10.61;85.70
72465;BME280;60471;52.150;4.508;2022-11-15T07:10:08;100406.22;;;10.55;85.35
72465;BME280;60471;52.150;4.508;2022-11-15T07:12:35;100402.72;;;10.54;85.47
72465;BME280;60471;52.150;4.508;2022-11-15T07:15:01;100407.22;;;10.68;84.92
72465;BME280;60471;52.150;4.508;2022-11-15T07:17:27;100406.56;;;10.64;84.87
72465;BME280;60471;52.150;4.508;2022-11-15T07:19:54;100410.53;;;10.71;84.56
72465;BME280;60471;52.150;4.508;2022-11-15T07:22:20;100414.38;;;10.66;85.01
72465;BME280;60471;52.150;4.508;2022-11-15T07:24:46;100407.72;;;10.59;85.03
72465;BME280;60471;52.150;4.508;2022-11-15T07:27:12;100408.59;;;10.59;85.44
72465;BME280;60471;52.150;4.508;2022-11-15T07:29:38;100413.19;;;10.56;85.78
72465;BME280;60471;52.150;4.508;2022-11-15T07:32:05;100406.38;;;10.67;85.47
72465;BME280;60471;52.150;4.508;2022-11-15T07:34:31;100408.25;;;10.65;85.37
72465;BME280;60471;52.150;4.508;2022-11-15T07:36:57;100401.00;;;10.69;85.27
72465;BME280;60471;52.150;4.508;2022-11-15T07:39:23;100403.66;;;10.69;85.23
72465;BME280;60471;52.150;4.508;2022-11-15T07:41:49;100406.88;;;10.74;84.93
72465;BME280;60471;52.150;4.508;2022-11-15T07:44:35;100397.97;;;10.77;84.73
72465;BME280;60471;52.150;4.508;2022-11-15T07:47:02;100396.00;;;10.80;84.69
72465;BME280;60471;52.150;4.508;2022-11-15T07:49:28;100398.09;;;10.73;84.88
72465;BME280;60471;52.150;4.508;2022-11-15T07:51:54;100399.50;;;10.65;85.12
72465;BME280;60471;52.150;4.508;2022-11-15T07:54:20;100396.78;;;10.66;84.73
72465;BME280;60471;52.150;4.508;2022-11-15T07:56:47;100393.88;;;10.71;84.65
72465;BME280;60471;52.150;4.508;2022-11-15T07:59:14;100391.22;;;10.71;83.94
72465;BME280;60471;52.150;4.508;2022-11-15T08:01:40;100378.22;;;10.68;83.82
72465;BME280;60471;52.150;4.508;2022-11-15T08:04:06;100382.53;;;10.69;83.50
72465;BME280;60471;52.150;4.508;2022-11-15T08:06:32;100373.44;;;10.74;83.11
72465;BME280;60471;52.150;4.508;2022-11-15T08:08:58;100383.22;;;10.72;82.91
72465;BME280;60471;52.150;4.508;2022-11-15T08:11:25;100376.56;;;10.81;82.47
72465;BME280;60471;52.150;4.508;2022-11-15T08:13:51;100376.56;;;10.81;82.16
72465;BME280;60471;52.150;4.508;2022-11-15T08:16:17;100371.47;;;10.78;82.29
72465;BME280;60471;52.150;4.508;2022-11-15T08:18:43;100372.41;;;10.77;82.54
72465;BME280;60471;52.150;4.508;2022-11-15T08:21:17;100377.19;;;10.86;81.99
72465;BME280;60471;52.150;4.508;2022-11-15T08:23:45;100365.84;;;11.00;81.71
72465;BME280;60471;52.150;4.508;2022-11-15T08:26:11;100364.81;;;11.02;81.52
72465;BME280;60471;52.150;4.508;2022-11-15T08:28:37;100356.88;;;11.02;81.61
72465;BME280;60471;52.150;4.508;2022-11-15T08:31:04;100356.44;;;11.10;81.59
72465;BME280;60471;52.150;4.508;2022-11-15T08:33:31;100354.28;;;11.17;81.44
72465;BME280;60471;52.150;4.508;2022-11-15T08:35:59;100360.34;;;11.19;81.05
72465;BME280;60471;52.150;4.508;2022-11-15T08:38:26;100360.69;;;11.13;81.41
72465;BME280;60471;52.150;4.508;2022-11-15T08:41:01;100348.75;;;11.21;81.20
72465;BME280;60471;52.150;4.508;2022-11-15T08:43:29;100353.66;;;11.27;81.01
72465;BME280;60471;52.150;4.508;2022-11-15T08:45:56;100351.88;;;11.28;81.00
72465;BME280;60471;52.150;4.508;2022-11-15T08:48:23;100354.25;;;11.32;80.84
72465;BME280;60471;52.150;4.508;2022-11-15T08:50:53;100349.44;;;11.39;81.01
72465;BME280;60471;52.150;4.508;2022-11-15T08:53:21;100344.34;;;11.36;80.67
72465;BME280;60471;52.150;4.508;2022-11-15T08:55:47;100345.59;;;11.30;81.15
72465;BME280;60471;52.150;4.508;2022-11-15T08:58:14;100345.09;;;11.38;80.92
72465;BME280;60471;52.150;4.508;2022-11-15T09:00:40;100345.69;;;11.43;80.49
72465;BME280;60471;52.150;4.508;2022-11-15T09:03:07;100349.81;;;11.63;79.99
72465;BME280;60471;52.150;4.508;2022-11-15T09:05:37;100345.81;;;11.86;79.15
72465;BME280;60471;52.150;4.508;2022-11-15T09:08:04;100338.13;;;12.24;77.85
72465;BME280;60471;52.150;4.508;2022-11-15T09:10:30;100337.28;;;12.24;77.20
72465;BME280;60471;52.150;4.508;2022-11-15T09:12:57;100342.22;;;12.57;75.83
72465;BME280;60471;52.150;4.508;2022-11-15T09:15:23;100346.81;;;12.82;74.47
72465;BME280;60471;52.150;4.508;2022-11-15T09:17:50;100341.91;;;13.02;73.82
72465;BME280;60471;52.150;4.508;2022-11-15T09:20:16;100336.06;;;12.97;73.37
72465;BME280;60471;52.150;4.508;2022-11-15T09:22:42;100349.16;;;12.86;72.65
72465;BME280;60471;52.150;4.508;2022-11-15T09:25:08;100365.69;;;13.17;71.35
72465;BME280;60471;52.150;4.508;2022-11-15T09:27:35;100342.97;;;13.27;71.60
72465;BME280;60471;52.150;4.508;2022-11-15T09:30:01;100332.53;;;13.24;71.47
72465;BME280;60471;52.150;4.508;2022-11-15T09:32:28;100343.13;;;13.24;70.25
72465;BME280;60471;52.150;4.508;2022-11-15T09:34:56;100346.31;;;13.81;69.02
72465;BME280;60471;52.150;4.508;2022-11-15T09:37:23;100336.28;;;14.23;67.58
72465;BME280;60471;52.150;4.508;2022-11-15T09:39:49;100341.44;;;14.50;66.30
72465;BME280;60471;52.150;4.508;2022-11-15T09:45:26;100336.09;;;13.75;67.73
72465;BME280;60471;52.150;4.508;2022-11-15T09:48:14;100340.66;;;13.48;68.40
72465;BME280;60471;52.150;4.508;2022-11-15T09:51:03;100346.38;;;13.42;68.98
72465;BME280;60471;52.150;4.508;2022-11-15T09:53:46;100357.41;;;13.36;68.45
72465;BME280;60471;52.150;4.508;2022-11-15T09:56:23;100324.34;;;13.92;66.85
72465;BME280;60471;52.150;4.508;2022-11-15T10:05:24;100308.16;;;14.70;64.28
72465;BME280;60471;52.150;4.508;2022-11-15T10:08:06;100297.03;;;15.24;62.41
72465;BME280;60471;52.150;4.508;2022-11-15T10:10:46;100283.56;;;14.55;64.49
72465;BME280;60471;52.150;4.508;2022-11-15T10:13:32;100278.16;;;14.44;63.91
72465;BME280;60471;52.150;4.508;2022-11-15T10:19:16;100273.06;;;16.04;59.65
72465;BME280;60471;52.150;4.508;2022-11-15T10:22:11;100279.53;;;15.32;61.30
72465;BME280;60471;52.150;4.508;2022-11-15T10:24:43;100280.91;;;15.60;61.07
72465;BME280;60471;52.150;4.508;2022-11-15T10:27:13;100278.63;;;16.12;59.37
72465;BME280;60471;52.150;4.508;2022-11-15T10:29:46;100270.38;;;16.26;58.16
72465;BME280;60471;52.150;4.508;2022-11-15T10:32:20;100263.13;;;16.83;56.33
72465;BME280;60471;52.150;4.508;2022-11-15T10:34:48;100257.72;;;16.18;57.95
72465;BME280;60471;52.150;4.508;2022-11-15T10:37:28;100261.53;;;16.26;57.16
72465;BME280;60471;52.150;4.508;2022-11-15T10:40:22;100250.97;;;16.46;57.14
72465;BME280;60471;52.150;4.508;2022-11-15T10:43:16;100242.09;;;16.57;56.70
72465;BME280;60471;52.150;4.508;2022-11-15T10:45:46;100230.75;;;16.87;55.17
72465;BME280;60471;52.150;4.508;2022-11-15T10:50:41;100226.75;;;16.17;57.20
72465;BME280;60471;52.150;4.508;2022-11-15T10:53:21;100228.94;;;15.68;58.49
72465;BME280;60471;52.150;4.508;2022-11-15T10:56:06;100236.22;;;15.19;59.50
72465;BME280;60471;52.150;4.508;2022-11-15T10:58:39;100232.50;;;14.87;60.66
72465;BME280;60471;52.150;4.508;2022-11-15T11:01:16;100225.03;;;15.38;59.22
72465;BME280;60471;52.150;4.508;2022-11-15T11:04:04;100237.41;;;15.84;58.17
72465;BME280;60471;52.150;4.508;2022-11-15T11:06:50;100230.94;;;16.31;56.67
72465;BME280;60471;52.150;4.508;2022-11-15T11:09:39;100232.09;;;14.69;61.52
72465;BME280;60471;52.150;4.508;2022-11-15T11:12:50;100230.44;;;13.95;64.13
72465;BME280;60471;52.150;4.508;2022-11-15T11:33:34;100167.75;;;14.65;61.37
72465;BME280;60471;52.150;4.508;2022-11-15T11:36:19;100180.34;;;14.86;61.00
72465;BME280;60471;52.150;4.508;2022-11-15T11:42:16;100156.97;;;15.02;60.08
72465;BME280;60471;52.150;4.508;2022-11-15T11:47:47;100170.13;;;14.57;61.34
72465;BME280;60471;52.150;4.508;2022-11-15T11:50:26;100157.72;;;14.34;62.37
72465;BME280;60471;52.150;4.508;2022-11-15T11:58:23;100141.75;;;15.15;59.63
72465;BME280;60471;52.150;4.508;2022-11-15T12:15:15;100102.75;;;16.57;54.44
72465;BME280;60471;52.150;4.508;2022-11-15T12:17:46;100100.56;;;16.41;54.67
72465;BME280;60471;52.150;4.508;2022-11-15T12:20:17;100089.91;;;15.77;56.66
72465;BME280;60471;52.150;4.508;2022-11-15T12:23:04;100087.13;;;16.10;55.83
72465;BME280;60471;52.150;4.508;2022-11-15T12:25:48;100086.34;;;17.33;52.54
72465;BME280;60471;52.150;4.508;2022-11-15T12:28:47;100080.28;;;17.22;52.59
72465;BME280;60471;52.150;4.508;2022-11-15T12:36:54;100063.75;;;18.65;48.72
72465;BME280;60471;52.150;4.508;2022-11-15T12:40:02;100050.97;;;18.30;48.84
72465;BME280;60471;52.150;4.508;2022-11-15T12:43:02;100054.63;;;18.67;48.39
72465;BME280;60471;52.150;4.508;2022-11-15T12:45:33;100038.06;;;18.35;48.85
72465;BME280;60471;52.150;4.508;2022-11-15T12:58:59;100029.44;;;16.73;52.51
72465;BME280;60471;52.150;4.508;2022-11-15T13:06:47;100018.28;;;16.89;52.55
72465;BME280;60471;52.150;4.508;2022-11-15T13:14:56;100005.56;;;15.88;55.43
72465;BME280;60471;52.150;4.508;2022-11-15T13:17:30;99993.16;;;15.34;56.98
72465;BME280;60471;52.150;4.508;2022-11-15T13:20:18;100000.56;;;14.64;58.87
72465;BME280;60471;52.150;4.508;2022-11-15T13:22:49;99998.78;;;14.18;60.58
72465;BME280;60471;52.150;4.508;2022-11-15T13:28:42;99994.91;;;13.76;61.68
72465;BME280;60471;52.150;4.508;2022-11-15T13:31:27;99993.81;;;13.78;61.82
72465;BME280;60471;52.150;4.508;2022-11-15T13:34:16;99989.25;;;13.56;62.23
72465;BME280;60471;52.150;4.508;2022-11-15T13:36:48;99978.34;;;13.61;62.45
72465;BME280;60471;52.150;4.508;2022-11-15T13:39:30;99974.00;;;13.36;63.35
72465;BME280;60471;52.150;4.508;2022-11-15T13:42:02;99972.88;;;13.27;63.71
72465;BME280;60471;52.150;4.508;2022-11-15T13:44:31;99961.75;;;13.22;63.72
72465;BME280;60471;52.150;4.508;2022-11-15T13:47:09;99957.81;;;13.28;63.82
72465;BME280;60471;52.150;4.508;2022-11-15T13:49:40;99949.94;;;13.02;64.14
72465;BME280;60471;52.150;4.508;2022-11-15T13:52:11;99948.97;;;13.03;64.37
72465;BME280;60471;52.150;4.508;2022-11-15T13:54:47;99941.06;;;12.91;64.49
72465;BME280;60471;52.150;4.508;2022-11-15T13:57:25;99929.91;;;12.98;64.32
72465;BME280;60471;52.150;4.508;2022-11-15T14:00:04;99934.25;;;12.99;63.96
72465;BME280;60471;52.150;4.508;2022-11-15T14:02:50;99926.88;;;12.92;63.27
72465;BME280;60471;52.150;4.508;2022-11-15T14:05:19;99919.66;;;12.94;63.12
72465;BME280;60471;52.150;4.508;2022-11-15T14:08:02;99912.44;;;12.96;63.21
72465;BME280;60471;52.150;4.508;2022-11-15T14:10:38;99914.31;;;12.83;63.49
72465;BME280;60471;52.150;4.508;2022-11-15T14:13:29;99899.44;;;12.93;63.05
72465;BME280;60471;52.150;4.508;2022-11-15T14:16:13;99895.50;;;12.98;62.63
72465;BME280;60471;52.150;4.508;2022-11-15T14:18:47;99894.69;;;12.85;62.93
72465;BME280;60471;52.150;4.508;2022-11-15T14:21:15;99887.19;;;12.79;63.37
72465;BME280;60471;52.150;4.508;2022-11-15T14:23:42;99887.59;;;12.86;63.48
72465;BME280;60471;52.150;4.508;2022-11-15T14:26:34;99882.59;;;12.94;63.67
72465;BME280;60471;52.150;4.508;2022-11-15T14:29:26;99872.66;;;12.85;64.11
72465;BME280;60471;52.150;4.508;2022-11-15T14:32:24;99871.41;;;12.77;64.31
72465;BME280;60471;52.150;4.508;2022-11-15T14:34:58;99866.78;;;12.68;64.79
72465;BME280;60471;52.150;4.508;2022-11-15T14:37:31;99864.25;;;12.67;64.87
72465;BME280;60471;52.150;4.508;2022-11-15T14:40:02;99855.75;;;12.74;64.82
72465;BME280;60471;52.150;4.508;2022-11-15T14:42:30;99846.75;;;12.77;65.03
72465;BME280;60471;52.150;4.508;2022-11-15T14:44:57;99842.00;;;12.69;65.04
72465;BME280;60471;52.150;4.508;2022-11-15T14:47:24;99847.81;;;12.74;65.11
72465;BME280;60471;52.150;4.508;2022-11-15T14:49:50;99849.00;;;12.70;64.79
72465;BME280;60471;52.150;4.508;2022-11-15T14:52:30;99846.56;;;12.67;65.32
72465;BME280;60471;52.150;4.508;2022-11-15T14:55:04;99841.63;;;12.63;65.64
72465;BME280;60471;52.150;4.508;2022-11-15T14:57:49;99837.66;;;12.68;65.45
72465;BME280;60471;52.150;4.508;2022-11-15T15:00:17;99831.88;;;12.63;65.63
72465;BME280;60471;52.150;4.508;2022-11-15T15:02:47;99832.09;;;12.60;65.54
72465;BME280;60471;52.150;4.508;2022-11-15T15:07:45;99819.72;;;12.61;65.79
72465;BME280;60471;52.150;4.508;2022-11-15T15:10:13;99820.75;;;12.58;65.93
72465;BME280;60471;52.150;4.508;2022-11-15T15:12:44;99815.28;;;12.61;65.75
72465;BME280;60471;52.150;4.508;2022-11-15T15:15:37;99815.38;;;12.60;66.05
72465;BME280;60471;52.150;4.508;2022-11-15T15:18:04;99806.97;;;12.66;66.06
72465;BME280;60471;52.150;4.508;2022-11-15T15:20:31;99809.84;;;12.63;66.22
72465;BME280;60471;52.150;4.508;2022-11-15T15:22:58;99805.00;;;12.57;66.63